createdAt,value
2022-09-27T00:01:10.892Z,84.59
2022-09-27T00:03:41.013Z,84.63
2022-09-27T00:06:20.669Z,84.74
2022-09-27T00:08:47.604Z,84.71
2022-09-27T00:11:30.906Z,84.73
2022-09-27T00:14:33.829Z,84.87
2022-09-27T00:17:01.178Z,84.99
2022-09-27T00:19:28.530Z,85.06
2022-09-27T00:21:56.783Z,85.28
2022-09-27T00:24:24.178Z,85.48
2022-09-27T00:26:51.263Z,85.52
2022-09-27T00:29:21.122Z,85.62
2022-09-27T00:31:52.995Z,85.70
2022-09-27T00:34:24.020Z,85.71
2022-09-27T00:36:52.511Z,85.71
2022-09-27T00:39:19.620Z,85.69
2022-09-27T00:42:11.054Z,85.97
2022-09-27T00:44:39.940Z,86.21
2022-09-27T00:47:23.218Z,86.33
2022-09-27T00:50:33.524Z,86.49
2022-09-27T00:53:29.962Z,86.58
2022-09-27T00:56:04.494Z,86.72
2022-09-27T00:58:38.297Z,86.66
2022-09-27T01:01:10.908Z,86.54
2022-09-27T01:04:09.984Z,86.45
2022-09-27T01:06:38.771Z,86.33
2022-09-27T01:09:08.681Z,86.25
2022-09-27T01:11:54.736Z,86.25
2022-09-27T01:14:59.995Z,86.16
2022-09-27T01:18:10.056Z,86.17
2022-09-27T01:21:16.120Z,86.31
2022-09-27T01:24:16.634Z,86.46
2022-09-27T01:27:06.169Z,86.87
2022-09-27T01:29:55.846Z,87.26
2022-09-27T01:32:39.651Z,87.04
2022-09-27T01:35:26.950Z,86.75
2022-09-27T01:38:39.171Z,86.63
2022-09-27T01:41:25.823Z,86.49
2022-09-27T01:44:01.587Z,86.32
2022-09-27T01:46:46.387Z,86.14
2022-09-27T01:49:22.111Z,86.24
2022-09-27T01:52:01.515Z,86.17
2022-09-27T01:54:40.092Z,86.15
2022-09-27T01:57:11.236Z,86.09
2022-09-27T01:59:51.178Z,86.07
2022-09-27T02:02:25.412Z,85.96
2022-09-27T02:11:16.775Z,85.23
2022-09-27T02:13:47.466Z,85.11
2022-09-27T02:16:39.114Z,84.91
2022-09-27T02:19:36.298Z,84.83
2022-09-27T02:22:38.139Z,85.41
2022-09-27T02:25:25.522Z,85.59
2022-09-27T02:28:36.788Z,85.82
2022-09-27T02:31:24.203Z,86.42
2022-09-27T02:34:15.804Z,86.71
2022-09-27T02:36:44.361Z,87.04
2022-09-27T02:39:17.772Z,86.91
2022-09-27T02:41:48.129Z,87.08
2022-09-27T02:44:23.393Z,87.17
2022-09-27T02:47:32.649Z,87.23
2022-09-27T02:50:10.923Z,87.44
2022-09-27T02:52:46.452Z,87.72
2022-09-27T02:55:45.802Z,87.90
2022-09-27T02:58:37.242Z,88.10
2022-09-27T03:01:19.847Z,88.18
2022-09-27T03:03:58.462Z,88.20
2022-09-27T03:06:36.390Z,88.17
2022-09-27T03:09:15.225Z,88.15
2022-09-27T03:11:47.444Z,88.18
2022-09-27T03:14:17.848Z,88.08
2022-09-27T03:16:50.881Z,87.92
2022-09-27T03:19:26.473Z,87.73
2022-09-27T03:21:54.977Z,87.51
2022-09-27T03:24:24.507Z,87.19
2022-09-27T03:27:06.353Z,86.96
2022-09-27T03:29:38.769Z,86.82
2022-09-27T03:32:08.442Z,86.72
2022-09-27T03:34:40.231Z,86.62
2022-09-27T03:37:09.223Z,86.53
2022-09-27T03:39:45.359Z,86.53
2022-09-27T03:42:25.917Z,86.46
2022-09-27T03:44:56.971Z,86.29
2022-09-27T03:47:25.755Z,86.07
2022-09-27T03:49:54.216Z,85.89
2022-09-27T03:52:22.704Z,85.71
2022-09-27T03:54:56.373Z,85.48
2022-09-27T03:57:35.220Z,85.34
2022-09-27T04:00:07.286Z,85.15
2022-09-27T04:02:35.303Z,84.78
2022-09-27T04:05:03.542Z,84.66
2022-09-27T04:07:32.890Z,84.53
2022-09-27T04:10:09.222Z,84.56
2022-09-27T04:12:43.130Z,84.59
2022-09-27T04:15:14.468Z,84.64
2022-09-27T04:17:45.823Z,84.75
2022-09-27T04:20:27.974Z,84.84
2022-09-27T04:23:17.708Z,84.70
2022-09-27T04:25:51.161Z,84.71
2022-09-27T04:28:22.223Z,84.78
2022-09-27T04:30:50.853Z,84.79
2022-09-27T04:33:19.048Z,84.71
2022-09-27T04:36:05.266Z,84.58
2022-09-27T04:38:33.239Z,84.41
2022-09-27T04:41:03.942Z,84.49
2022-09-27T04:43:32.257Z,84.51
2022-09-27T04:46:00.165Z,84.51
2022-09-27T04:48:28.193Z,84.62
2022-09-27T04:51:00.682Z,84.68
2022-09-27T04:53:30.053Z,84.79
2022-09-27T04:55:59.063Z,84.86
2022-09-27T04:58:29.103Z,84.91
2022-09-27T05:00:57.716Z,84.93
2022-09-27T05:03:31.683Z,84.93
2022-09-27T05:06:05.068Z,84.97
2022-09-27T05:08:33.453Z,85.04
2022-09-27T05:11:05.132Z,85.11
2022-09-27T05:13:33.913Z,85.18
2022-09-27T05:16:04.650Z,85.23
2022-09-27T05:18:33.779Z,85.23
2022-09-27T05:21:05.153Z,85.24
2022-09-27T05:23:37.423Z,85.23
2022-09-27T05:26:06.962Z,85.11
2022-09-27T05:28:39.187Z,85.05
2022-09-27T05:31:08.275Z,84.96
2022-09-27T05:33:39.588Z,84.88
2022-09-27T05:36:15.411Z,84.80
2022-09-27T05:38:44.331Z,84.63
2022-09-27T05:41:13.434Z,84.53
2022-09-27T05:43:42.231Z,84.41
2022-09-27T05:46:10.762Z,84.18
2022-09-27T05:48:40.875Z,84.03
2022-09-27T05:51:12.268Z,83.77
2022-09-27T05:53:42.390Z,83.65
2022-09-27T05:56:12.404Z,83.33
2022-09-27T05:58:41.610Z,83.36
2022-09-27T06:01:21.072Z,83.40
2022-09-27T06:04:16.668Z,83.32
2022-09-27T06:06:56.634Z,83.15
2022-09-27T06:09:46.547Z,82.98
2022-09-27T06:12:21.406Z,82.95
2022-09-27T06:14:57.818Z,82.97
2022-09-27T06:17:31.083Z,82.86
2022-09-27T06:20:57.544Z,82.85
2022-09-27T06:23:22.283Z,82.85
2022-09-27T06:26:10.969Z,82.81
2022-09-27T06:28:42.720Z,82.53
2022-09-27T06:31:22.288Z,82.53
2022-09-27T06:33:50.846Z,82.42
2022-09-27T06:37:21.995Z,82.35
2022-09-27T06:39:53.537Z,82.25
2022-09-27T06:42:24.693Z,82.12
2022-09-27T06:44:54.494Z,82.05
2022-09-27T06:47:28.499Z,81.97
2022-09-27T06:49:58.811Z,82.03
2022-09-27T06:52:35.989Z,81.96
2022-09-27T06:55:25.760Z,81.82
2022-09-27T06:58:21.880Z,81.91
2022-09-27T07:00:54.642Z,81.89
2022-09-27T07:03:40.965Z,81.72
2022-09-27T07:06:20.066Z,81.69
2022-09-27T07:08:55.089Z,81.59
2022-09-27T07:11:47.125Z,81.38
2022-09-27T07:14:13.873Z,81.43
2022-09-27T07:17:01.157Z,81.17
2022-09-27T07:19:33.427Z,80.95
2022-09-27T07:22:07.547Z,80.88
2022-09-27T07:24:44.482Z,80.56
2022-09-27T07:27:22.564Z,80.36
2022-09-27T07:29:52.455Z,79.87
2022-09-27T07:32:28.075Z,79.86
2022-09-27T07:34:59.355Z,79.50
2022-09-27T07:37:36.774Z,79.30
2022-09-27T07:40:10.351Z,77.60
2022-09-27T07:42:39.241Z,77.68
2022-09-27T07:45:19.100Z,77.47
2022-09-27T07:47:53.501Z,77.39
2022-09-27T07:50:33.845Z,77.29
2022-09-27T07:53:18.609Z,77.10
2022-09-27T07:55:59.637Z,76.98
2022-09-27T07:58:31.885Z,76.94
2022-09-27T08:01:15.184Z,76.88
2022-09-27T08:03:56.774Z,76.61
2022-09-27T08:06:28.947Z,76.58
2022-09-27T08:09:35.371Z,76.43
2022-09-27T08:12:09.587Z,76.36
2022-09-27T08:14:43.970Z,76.02
2022-09-27T08:17:23.709Z,75.57
2022-09-27T08:19:58.471Z,75.50
2022-09-27T08:22:31.852Z,75.44
2022-09-27T08:25:07.397Z,75.34
2022-09-27T08:27:45.011Z,75.27
2022-09-27T08:30:15.673Z,75.21
2022-09-27T08:33:04.854Z,75.12
2022-09-27T08:35:44.621Z,74.93
2022-09-27T08:38:15.801Z,74.61
2022-09-27T08:41:17.833Z,74.30
2022-09-27T08:44:08.128Z,74.28
2022-09-27T08:47:00.893Z,74.36
2022-09-27T08:50:09.535Z,74.05
2022-09-27T08:53:15.371Z,73.44
2022-09-27T08:55:50.797Z,72.90
2022-09-27T08:58:36.496Z,72.81
2022-09-27T09:01:12.021Z,71.94
2022-09-27T09:03:58.280Z,71.03
2022-09-27T09:06:50.601Z,70.67
2022-09-27T09:09:40.565Z,71.18
2022-09-27T09:12:50.761Z,71.01
2022-09-27T09:15:58.630Z,71.30
2022-09-27T09:18:33.216Z,70.93
2022-09-27T09:21:32.609Z,70.96
2022-09-27T09:24:27.590Z,70.50
2022-09-27T09:27:26.947Z,70.42
2022-09-27T09:30:23.595Z,70.72
2022-09-27T09:33:23.992Z,70.74
2022-09-27T09:36:09.720Z,70.75
2022-09-27T09:39:03.541Z,70.85
2022-09-27T09:42:09.557Z,71.08
2022-09-27T09:45:13.725Z,71.38
2022-09-27T09:48:27.432Z,71.40
2022-09-27T09:51:03.038Z,71.39
2022-09-27T09:54:28.330Z,71.34
2022-09-27T09:57:52.886Z,71.62
2022-09-27T10:01:03.202Z,71.76
2022-09-27T10:04:41.836Z,72.16
2022-09-27T10:08:57.944Z,72.64
2022-09-27T10:10:38.508Z,72.74
2022-09-27T10:17:17.973Z,73.16
2022-09-27T10:20:09.469Z,73.51
2022-09-27T10:23:41.505Z,73.57
2022-09-27T10:26:34.661Z,73.39
2022-09-27T10:29:37.657Z,73.26
2022-09-27T10:32:45.214Z,73.06
2022-09-27T10:36:05.858Z,73.37
2022-09-27T10:38:50.792Z,73.28
2022-09-27T10:42:37.130Z,73.57
2022-09-27T10:45:00.216Z,74.19
2022-09-27T10:48:12.085Z,74.45
2022-09-27T11:00:41.202Z,76.06
2022-09-27T11:03:45.646Z,76.26
2022-09-27T11:07:13.236Z,75.47
2022-09-27T11:10:46.235Z,75.03
2022-09-27T11:13:49.299Z,75.49
2022-09-27T11:17:30.475Z,75.29
2022-09-27T11:20:40.735Z,75.19
2022-09-27T11:23:54.284Z,74.63
2022-09-27T11:26:43.319Z,74.22
2022-09-27T11:29:39.320Z,73.51
2022-09-27T11:32:32.615Z,73.06
2022-09-27T11:35:50.908Z,72.16
2022-09-27T11:39:14.035Z,71.57
2022-09-27T11:42:52.918Z,71.90
2022-09-27T11:46:28.112Z,72.33
2022-09-27T11:49:51.341Z,72.88
2022-09-27T11:53:00.080Z,73.04
2022-09-27T11:56:07.333Z,73.37
2022-09-27T11:59:25.373Z,73.20
2022-09-27T12:02:32.180Z,72.86
2022-09-27T12:06:19.336Z,72.80
2022-09-27T12:09:42.813Z,72.67
2022-09-27T12:12:23.087Z,72.44
2022-09-27T12:15:18.997Z,72.37
2022-09-27T12:17:54.785Z,72.51
2022-09-27T12:20:32.668Z,72.43
2022-09-27T12:23:36.423Z,72.52
2022-09-27T12:26:24.119Z,72.25
2022-09-27T12:29:26.018Z,72.50
2022-09-27T12:32:48.375Z,71.95
2022-09-27T12:35:32.460Z,71.48
2022-09-27T12:38:31.731Z,71.59
2022-09-27T12:41:10.383Z,71.54
2022-09-27T12:43:54.700Z,71.77
2022-09-27T12:46:42.141Z,71.66
2022-09-27T12:49:37.665Z,71.74
2022-09-27T12:52:23.776Z,71.85
2022-09-27T12:55:24.413Z,71.86
2022-09-27T12:58:35.037Z,71.70
2022-09-27T13:01:36.819Z,72.01
2022-09-27T13:04:32.519Z,72.06
2022-09-27T13:07:45.346Z,71.93
2022-09-27T13:11:07.595Z,72.13
2022-09-27T13:13:48.791Z,72.20
2022-09-27T13:16:22.435Z,72.40
2022-09-27T13:18:58.437Z,72.32
2022-09-27T13:21:47.679Z,72.27
2022-09-27T13:24:51.037Z,71.83
2022-09-27T13:27:30.872Z,71.69
2022-09-27T13:30:13.014Z,71.51
2022-09-27T13:33:19.149Z,71.43
2022-09-27T13:36:08.617Z,71.38
2022-09-27T13:38:46.073Z,71.53
2022-09-27T13:41:26.610Z,71.12
2022-09-27T13:44:26.853Z,71.11
2022-09-27T13:47:47.826Z,70.27
2022-09-27T13:51:53.875Z,70.45
2022-09-27T13:54:33.180Z,70.04
2022-09-27T13:57:59.831Z,70.09
2022-09-27T14:01:27.750Z,69.66
2022-09-27T14:04:35.954Z,69.32
2022-09-27T14:07:56.144Z,69.59
2022-09-27T14:10:58.526Z,69.78
2022-09-27T14:13:41.324Z,69.69
2022-09-27T14:16:29.941Z,69.56
2022-09-27T14:18:59.802Z,69.50
2022-09-27T14:21:33.635Z,69.48
2022-09-27T14:24:28.629Z,69.57
2022-09-27T14:27:17.801Z,69.74
2022-09-27T14:29:53.953Z,69.99
2022-09-27T14:32:49.923Z,69.93
2022-09-27T14:35:48.872Z,69.97
2022-09-27T14:38:37.676Z,70.11
2022-09-27T14:45:42.238Z,70.15
2022-09-27T14:48:30.621Z,70.00
2022-09-27T14:51:19.589Z,70.09
2022-09-27T14:53:58.643Z,70.31
2022-09-27T14:56:40.637Z,70.40
2022-09-27T14:59:29.238Z,70.52
2022-09-27T15:02:03.827Z,70.65
2022-09-27T15:04:32.802Z,70.77
2022-09-27T15:07:02.642Z,70.90
2022-09-27T15:09:33.963Z,70.97
2022-09-27T15:12:05.433Z,71.01
2022-09-27T15:14:54.009Z,71.22
2022-09-27T15:17:54.590Z,71.26
2022-09-27T15:21:36.561Z,71.32
2022-09-27T15:29:00.730Z,71.51
2022-09-27T15:31:35.471Z,71.72
2022-09-27T15:34:41.612Z,71.83
2022-09-27T15:37:44.232Z,71.65
2022-09-27T15:40:23.643Z,71.69
2022-09-27T15:43:46.921Z,71.74
2022-09-27T15:47:01.777Z,71.72
2022-09-27T15:49:40.487Z,71.89
2022-09-27T15:52:55.308Z,71.97
2022-09-27T15:55:28.130Z,72.14
2022-09-27T15:58:16.353Z,72.31
2022-09-27T16:01:06.139Z,72.45
2022-09-27T16:03:41.338Z,72.69
2022-09-27T16:06:15.539Z,72.84
2022-09-27T16:08:57.146Z,72.97
2022-09-27T16:11:34.925Z,73.07
2022-09-27T16:14:24.226Z,73.09
2022-09-27T16:17:08.812Z,73.37
2022-09-27T16:19:36.955Z,73.55
2022-09-27T16:22:05.686Z,73.94
2022-09-27T16:24:40.541Z,74.39
2022-09-27T16:27:34.511Z,73.74
2022-09-27T16:30:26.636Z,71.92
2022-09-27T16:33:43.307Z,69.19
2022-09-27T16:36:20.224Z,69.54
2022-09-27T16:39:11.889Z,70.50
2022-09-27T16:41:47.409Z,71.05
2022-09-27T16:44:21.686Z,71.41
2022-09-27T16:46:57.527Z,71.97
2022-09-27T16:49:47.932Z,72.20
2022-09-27T16:52:20.680Z,72.63
2022-09-27T16:55:09.342Z,72.87
2022-09-27T16:57:55.729Z,73.07
2022-09-27T17:00:44.996Z,73.30
2022-09-27T17:03:24.079Z,73.59
2022-09-27T17:05:54.194Z,73.97
2022-09-27T17:08:45.043Z,74.33
2022-09-27T17:11:27.887Z,74.69
2022-09-27T17:13:56.458Z,75.08
2022-09-27T17:16:29.148Z,75.72
2022-09-27T17:19:07.452Z,76.28
2022-09-27T17:22:10.076Z,76.52
2022-09-27T17:24:47.552Z,76.88
2022-09-27T17:27:29.121Z,77.11
2022-09-27T17:30:08.460Z,77.44
2022-09-27T17:42:54.407Z,78.19
2022-09-27T17:45:30.467Z,78.35
2022-09-27T17:48:21.612Z,78.53
2022-09-27T17:50:55.233Z,78.61
2022-09-27T17:53:27.275Z,78.77
2022-09-27T17:56:05.655Z,79.02
2022-09-27T17:58:37.604Z,79.24
2022-09-27T18:01:07.750Z,79.46
2022-09-27T18:03:41.144Z,79.58
2022-09-27T18:06:15.985Z,79.65
2022-09-27T18:08:47.690Z,79.83
2022-09-27T18:11:52.286Z,79.88
2022-09-27T18:14:41.253Z,79.90
2022-09-27T18:17:14.774Z,79.96
2022-09-27T18:19:53.348Z,80.09
2022-09-27T18:22:30.023Z,80.12
2022-09-27T18:25:06.531Z,80.17
2022-09-27T18:27:41.826Z,80.31
2022-09-27T18:30:11.383Z,80.46
2022-09-27T18:32:41.998Z,80.40
2022-09-27T18:35:11.031Z,80.54
2022-09-27T18:37:44.614Z,80.59
2022-09-27T18:40:24.204Z,80.64
2022-09-27T18:43:06.137Z,80.75
2022-09-27T18:45:41.883Z,80.76
2022-09-27T18:48:11.289Z,80.80
2022-09-27T18:50:52.668Z,80.86
2022-09-27T18:53:39.683Z,80.90
2022-09-27T18:57:27.156Z,80.94
2022-09-27T19:04:26.141Z,81.06
2022-09-27T19:07:58.230Z,81.11
2022-09-27T19:11:15.538Z,81.18
2022-09-27T19:15:26.611Z,81.32
2022-09-27T19:29:07.897Z,81.51
2022-09-27T19:32:33.160Z,81.55
2022-09-27T19:39:36.374Z,81.63
2022-09-27T20:07:51.764Z,82.63
2022-09-27T20:10:24.549Z,82.63
2022-09-27T20:13:07.681Z,82.63
2022-09-27T20:19:41.637Z,82.58
2022-09-27T20:25:32.945Z,82.48
2022-09-27T20:27:30.670Z,82.33
2022-09-27T20:30:18.595Z,82.23
2022-09-27T20:35:32.532Z,82.19
2022-09-27T20:45:42.111Z,82.01
2022-09-27T20:48:56.464Z,82.03
2022-09-27T20:51:49.934Z,82.08
2022-09-27T20:54:19.762Z,82.18
2022-09-27T20:56:51.045Z,82.20
2022-09-27T20:59:22.167Z,82.20
2022-09-27T21:01:55.009Z,82.19
2022-09-27T21:04:24.024Z,82.18
2022-09-27T21:06:54.247Z,82.09
2022-09-27T21:09:24.714Z,82.02
2022-09-27T21:11:54.448Z,81.97
2022-09-27T21:14:23.620Z,81.94
2022-09-27T21:16:51.924Z,81.92
2022-09-27T21:19:20.176Z,81.87
2022-09-27T21:21:48.344Z,81.86
2022-09-27T21:24:16.829Z,81.88
2022-09-27T21:26:45.304Z,81.90
2022-09-27T21:29:14.005Z,81.89
2022-09-27T21:31:46.297Z,81.91
2022-09-27T21:34:15.157Z,81.95
2022-09-27T21:36:43.262Z,81.98
2022-09-27T21:39:12.029Z,82.01
2022-09-27T21:41:40.741Z,82.05
2022-09-27T21:44:11.758Z,82.12
2022-09-27T21:46:41.696Z,82.20
2022-09-27T21:49:11.306Z,82.31
2022-09-27T21:51:42.451Z,82.41
2022-09-27T21:54:14.813Z,82.48
2022-09-27T21:56:46.985Z,82.51
2022-09-27T22:05:33.744Z,82.48
2022-09-27T22:08:01.689Z,82.49
2022-09-27T22:10:29.929Z,82.52
2022-09-27T22:12:57.983Z,82.55
2022-09-27T22:15:25.894Z,82.59
2022-09-27T22:17:53.777Z,82.61
2022-09-27T22:20:21.970Z,82.63
2022-09-27T22:22:50.121Z,82.62
2022-09-27T22:25:17.947Z,82.62
2022-09-27T22:27:45.932Z,82.61
2022-09-27T22:30:14.608Z,82.61
2022-09-27T22:32:46.179Z,82.62
2022-09-27T22:35:14.687Z,82.64
2022-09-27T22:37:42.815Z,82.69
2022-09-27T22:40:13.321Z,82.74
2022-09-27T22:42:41.653Z,82.81
2022-09-27T22:45:10.589Z,82.83
2022-09-27T22:47:38.756Z,82.86
2022-09-27T22:50:09.590Z,82.89
2022-09-27T22:52:37.805Z,82.93
2022-09-27T22:55:06.794Z,82.95
2022-09-27T22:57:34.758Z,82.94
2022-09-27T23:00:06.020Z,82.93
2022-09-27T23:02:34.590Z,82.90
2022-09-27T23:05:02.567Z,82.84
2022-09-27T23:07:30.502Z,82.77
2022-09-27T23:09:58.464Z,82.70
2022-09-27T23:12:26.440Z,82.68
2022-09-27T23:14:55.674Z,82.70
2022-09-27T23:17:23.579Z,82.70
2022-09-27T23:19:51.620Z,82.69
2022-09-27T23:22:19.576Z,82.70
2022-09-27T23:24:47.757Z,82.72
2022-09-27T23:27:34.774Z,82.70
2022-09-27T23:30:02.837Z,82.68
2022-09-27T23:32:32.301Z,82.66
2022-09-27T23:35:00.254Z,82.64
2022-09-27T23:37:28.439Z,82.66
2022-09-27T23:39:57.521Z,82.65
2022-09-27T23:42:27.207Z,82.64
2022-09-27T23:44:56.122Z,82.59
2022-09-27T23:47:24.472Z,82.47
2022-09-27T23:49:54.426Z,82.26
2022-09-27T23:52:25.151Z,82.03
2022-09-27T23:54:53.332Z,81.86
2022-09-27T23:57:21.721Z,81.72
2022-09-27T23:59:50.102Z,81.66
